This is the latest recevied weather packets stored in our database for station/object N0OQA. If no packets are shown the sender has not sent any weather packets the latest 10 day(s).
| Time | Temp. | Humidity | Pressure | Rain* | Wind** | Luminosity | Snow |
|---|---|---|---|---|---|---|---|
| 1777517581 | 7.22° C | 57% | 1019.5 hPa | 0 mm | - | - | - |
| 1777516980 | 7.22° C | 56% | 1019.4 hPa | 0 mm | - | - | - |
| 1777516079 | 7.78° C | 58% | 1019.2 hPa | 0 mm | - | - | - |
| 1777508872 | 10.56° C | 47% | 1018.2 hPa | 0 mm | - | - | - |
| 1777502867 | 11.11° C | 46% | 1018.4 hPa | 0 mm | - | - | - |
| 1777500764 | 10.56° C | 47% | 1018.6 hPa | 0 mm | - | - | - |
| 1777498362 | 10.56° C | 46% | 1018.7 hPa | 0 mm | - | - | - |
| 1777496260 | 10.56° C | 45% | 1019.2 hPa | 0 mm | - | - | - |
| 1777476140 | 7.22° C | 51% | 1021.5 hPa | 0 mm | - | - | - |
| 1777469233 | 3.89° C | 72% | 1021.9 hPa | 0 mm | - | - | - |
| 1777468633 | 3.33° C | 73% | 1021.9 hPa | 0 mm | - | - | - |
| 1777468332 | 3.33° C | 73% | 1021.9 hPa | 0 mm | - | - | - |
| 1777468032 | 3.33° C | 73% | 1021.9 hPa | 0 mm | - | - | - |
| 1777467131 | 2.78° C | 77% | 1021.6 hPa | 0 mm | - | - | - |
| 1777466831 | 2.78° C | 78% | 1021.6 hPa | 0 mm | - | - | - |
| 1777466531 | 2.22° C | 79% | 1021.5 hPa | 0 mm | - | - | - |
| 1777466230 | 2.22° C | 80% | 1021.5 hPa | 0 mm | - | - | - |
| 1777465630 | 1.67° C | 82% | 1021.6 hPa | 0 mm | - | - | - |
| 1777465330 | 1.67° C | 82% | 1020.9 hPa | 0 mm | - | - | - |
| 1777465029 | 1.67° C | 83% | 1021.4 hPa | 0 mm | - | - | - |
| 1777462627 | 1.11° C | 84% | 1021 hPa | 0 mm | - | - | - |
| 1777462327 | 1.11° C | 84% | 1020.9 hPa | 0 mm | - | - | - |
| 1777460825 | 1.11° C | 82% | 1020.8 hPa | 0 mm | - | - | - |
| 1777459924 | 1.67° C | 83% | 1020.7 hPa | 0 mm | - | - | - |
| 1777458423 | 2.22° C | 79% | 1020.5 hPa | 0 mm | - | - | - |
* Rain since midnight (hover to see other rain measurements)
** Current wind speed in m/s (hover to see current wind gust speed)